SWA6299 KJAX-MDPP
Flight info
| Callsign | SWA6299 |
|---|---|
| Flight time | 1h 57m |
| Altitude | 37000 |
| Route | EXBOX2 EXBOX DCT PRMUS DCT DEBRL DCT CRANS DCT ZFP BR65V ZQA Y441 RUMFO Y374 ALBBE/N0422F230 M348 RETAK RETAK2S |
| Aircraft | B738/M-SDE2E3FGHIRWXY/LB1 |
Departure
| Time | 2026-05-06 11:09 |
|---|---|
| Airport | Jacksonville International Airport (KJAX) |
Arrival
| Time | 2026-05-06 13:06 |
|---|---|
| Airport | Gregorio Luperon International Airport (MDPP) |
| Time | Latitude | Longitude | Altitude | Speed | Heading |
|---|---|---|---|---|---|
| 2026-05-06 10:29 | 30.49040 | -81.68681 | 23 ft | 0 kts | 120° |
| 2026-05-06 10:55 | 30.49040 | -81.68682 | 22 ft | 0 kts | 120° |
| 2026-05-06 10:57 | 30.49042 | -81.68686 | 22 ft | 2 kts | 120° |
| 2026-05-06 10:57 | 30.49050 | -81.68701 | 22 ft | 2 kts | 120° |
| 2026-05-06 10:57 | 30.49056 | -81.68713 | 22 ft | 0 kts | 120° |
| 2026-05-06 10:58 | 30.49061 | -81.68726 | 22 ft | 2 kts | 94° |
| 2026-05-06 10:58 | 30.49059 | -81.68744 | 22 ft | 2 kts | 66° |
| 2026-05-06 10:58 | 30.49050 | -81.68758 | 22 ft | 2 kts | 36° |
| 2026-05-06 10:58 | 30.49044 | -81.68762 | 22 ft | 1 kts | 21° |
| 2026-05-06 10:59 | 30.49040 | -81.68765 | 22 ft | 0 kts | 25° |
| 2026-05-06 11:03 | 30.49047 | -81.68762 | 22 ft | 3 kts | 1° |
| 2026-05-06 11:03 | 30.49066 | -81.68787 | 22 ft | 6 kts | 273° |
| 2026-05-06 11:03 | 30.49049 | -81.68856 | 22 ft | 10 kts | 268° |
| 2026-05-06 11:04 | 30.49076 | -81.68947 | 22 ft | 12 kts | 295° |
| 2026-05-06 11:04 | 30.49128 | -81.69027 | 22 ft | 13 kts | 337° |
| 2026-05-06 11:04 | 30.49218 | -81.69020 | 23 ft | 12 kts | 11° |
| 2026-05-06 11:04 | 30.49300 | -81.69003 | 25 ft | 11 kts | 10° |
| 2026-05-06 11:05 | 30.49391 | -81.68990 | 26 ft | 15 kts | 350° |
| 2026-05-06 11:05 | 30.49486 | -81.69042 | 26 ft | 14 kts | 329° |
| 2026-05-06 11:05 | 30.49569 | -81.69102 | 26 ft | 14 kts | 330° |
| 2026-05-06 11:05 | 30.49654 | -81.69157 | 26 ft | 13 kts | 325° |
| 2026-05-06 11:06 | 30.49676 | -81.69247 | 26 ft | 11 kts | 252° |
| 2026-05-06 11:06 | 30.49647 | -81.69344 | 26 ft | 13 kts | 250° |
| 2026-05-06 11:06 | 30.49612 | -81.69459 | 26 ft | 16 kts | 250° |
| 2026-05-06 11:06 | 30.49573 | -81.69586 | 26 ft | 16 kts | 250° |
| 2026-05-06 11:07 | 30.49537 | -81.69705 | 26 ft | 14 kts | 250° |
| 2026-05-06 11:07 | 30.49504 | -81.69811 | 26 ft | 13 kts | 250° |
| 2026-05-06 11:07 | 30.49485 | -81.69901 | 26 ft | 10 kts | 285° |
| 2026-05-06 11:07 | 30.49547 | -81.69955 | 26 ft | 12 kts | 340° |
| 2026-05-06 11:08 | 30.49624 | -81.69969 | 26 ft | 10 kts | 28° |
| 2026-05-06 11:08 | 30.49658 | -81.69882 | 26 ft | 28 kts | 71° |
| 2026-05-06 11:08 | 30.49829 | -81.69325 | 26 ft | 114 kts | 70° |
| 2026-05-06 11:08 | 30.50168 | -81.68195 | 60 ft | 176 kts | 71° |
| 2026-05-06 11:09 | 30.50569 | -81.66835 | 758 ft | 181 kts | 70° |
| 2026-05-06 11:09 | 30.50994 | -81.65454 | 1366 ft | 191 kts | 70° |
| 2026-05-06 11:09 | 30.51467 | -81.63908 | 1685 ft | 216 kts | 69° |
| 2026-05-06 11:09 | 30.51946 | -81.62186 | 2209 ft | 236 kts | 71° |
| 2026-05-06 11:10 | 30.52169 | -81.60219 | 2772 ft | 261 kts | 94° |
| 2026-05-06 11:10 | 30.51612 | -81.58191 | 3499 ft | 273 kts | 122° |
| 2026-05-06 11:10 | 30.50358 | -81.56571 | 4511 ft | 271 kts | 145° |
| 2026-05-06 11:10 | 30.48839 | -81.55352 | 5491 ft | 272 kts | 147° |
| 2026-05-06 11:11 | 30.47269 | -81.54079 | 6229 ft | 283 kts | 146° |
| 2026-05-06 11:11 | 30.45647 | -81.52749 | 7128 ft | 287 kts | 146° |
| 2026-05-06 11:11 | 30.44011 | -81.51417 | 7953 ft | 292 kts | 146° |
| 2026-05-06 11:11 | 30.42346 | -81.50059 | 8774 ft | 297 kts | 146° |
| 2026-05-06 11:12 | 30.40657 | -81.48681 | 9579 ft | 302 kts | 145° |
| 2026-05-06 11:12 | 30.38933 | -81.47275 | 10328 ft | 309 kts | 145° |
| 2026-05-06 11:12 | 30.37122 | -81.45799 | 10593 ft | 332 kts | 145° |
| 2026-05-06 11:12 | 30.35214 | -81.44244 | 11290 ft | 339 kts | 145° |
| 2026-05-06 11:13 | 30.33255 | -81.42648 | 11925 ft | 348 kts | 144° |
| 2026-05-06 11:13 | 30.31276 | -81.41038 | 12652 ft | 352 kts | 144° |
| 2026-05-06 11:13 | 30.29274 | -81.39408 | 13326 ft | 358 kts | 144° |
| 2026-05-06 11:13 | 30.27239 | -81.37753 | 13999 ft | 363 kts | 144° |
| 2026-05-06 11:14 | 30.25171 | -81.36071 | 14644 ft | 369 kts | 145° |
| 2026-05-06 11:14 | 30.23056 | -81.34353 | 15262 ft | 375 kts | 145° |
| 2026-05-06 11:14 | 30.20911 | -81.32612 | 15871 ft | 380 kts | 145° |
| 2026-05-06 11:14 | 30.18755 | -81.30862 | 16467 ft | 385 kts | 146° |
| 2026-05-06 11:15 | 30.16552 | -81.29076 | 17040 ft | 390 kts | 146° |
| 2026-05-06 11:15 | 30.14315 | -81.27262 | 17597 ft | 396 kts | 146° |
| 2026-05-06 11:15 | 30.12054 | -81.25431 | 18157 ft | 400 kts | 146° |
| 2026-05-06 11:15 | 30.09787 | -81.23595 | 18722 ft | 404 kts | 146° |
| 2026-05-06 11:16 | 30.07470 | -81.21722 | 19295 ft | 407 kts | 146° |
| 2026-05-06 11:16 | 30.05055 | -81.20030 | 19828 ft | 410 kts | 155° |
| 2026-05-06 11:16 | 30.02407 | -81.18816 | 20374 ft | 410 kts | 167° |
| 2026-05-06 11:16 | 29.99616 | -81.18230 | 20899 ft | 408 kts | 178° |
| 2026-05-06 11:17 | 29.96797 | -81.17969 | 21428 ft | 410 kts | 179° |
| 2026-05-06 11:17 | 29.93940 | -81.17688 | 21885 ft | 415 kts | 178° |
| 2026-05-06 11:17 | 29.91076 | -81.17368 | 22332 ft | 419 kts | 178° |
| 2026-05-06 11:17 | 29.88206 | -81.17051 | 22813 ft | 421 kts | 179° |
| 2026-05-06 11:18 | 29.85277 | -81.16747 | 23254 ft | 424 kts | 179° |
| 2026-05-06 11:18 | 29.82343 | -81.16457 | 23705 ft | 426 kts | 179° |
| 2026-05-06 11:18 | 29.79368 | -81.16163 | 24127 ft | 429 kts | 179° |
| 2026-05-06 11:18 | 29.76423 | -81.15866 | 24513 ft | 432 kts | 179° |
| 2026-05-06 11:19 | 29.73393 | -81.15558 | 24886 ft | 436 kts | 179° |
| 2026-05-06 11:19 | 29.70407 | -81.15255 | 25266 ft | 439 kts | 179° |
| 2026-05-06 11:19 | 29.67335 | -81.14948 | 25620 ft | 442 kts | 180° |
| 2026-05-06 11:19 | 29.64301 | -81.14649 | 25975 ft | 445 kts | 180° |
| 2026-05-06 11:20 | 29.61188 | -81.14342 | 26329 ft | 448 kts | 180° |
| 2026-05-06 11:20 | 29.58115 | -81.14039 | 26673 ft | 451 kts | 180° |
| 2026-05-06 11:20 | 29.54971 | -81.13729 | 26973 ft | 454 kts | 180° |
| 2026-05-06 11:20 | 29.51807 | -81.13416 | 27302 ft | 457 kts | 180° |
| 2026-05-06 11:21 | 29.48669 | -81.13107 | 27617 ft | 460 kts | 180° |
| 2026-05-06 11:21 | 29.45467 | -81.12788 | 27911 ft | 463 kts | 180° |
| 2026-05-06 11:21 | 29.42246 | -81.12465 | 28222 ft | 465 kts | 180° |
| 2026-05-06 11:21 | 29.39041 | -81.12115 | 28504 ft | 470 kts | 177° |
| 2026-05-06 11:22 | 29.35815 | -81.11372 | 28753 ft | 479 kts | 168° |
| 2026-05-06 11:22 | 29.32676 | -81.10022 | 29044 ft | 486 kts | 156° |
| 2026-05-06 11:22 | 29.29793 | -81.08051 | 29338 ft | 491 kts | 145° |
| 2026-05-06 11:22 | 29.27199 | -81.05498 | 29577 ft | 495 kts | 134° |
| 2026-05-06 11:23 | 29.24881 | -81.02578 | 29840 ft | 497 kts | 131° |
| 2026-05-06 11:23 | 29.22593 | -80.99598 | 30064 ft | 500 kts | 130° |
| 2026-05-06 11:23 | 29.20364 | -80.96592 | 30314 ft | 502 kts | 129° |
| 2026-05-06 11:23 | 29.18173 | -80.93470 | 30556 ft | 505 kts | 127° |
| 2026-05-06 11:24 | 29.16034 | -80.90289 | 30828 ft | 506 kts | 126° |
| 2026-05-06 11:24 | 29.13911 | -80.87045 | 31065 ft | 508 kts | 125° |
| 2026-05-06 11:24 | 29.11848 | -80.83831 | 31296 ft | 510 kts | 124° |
| 2026-05-06 11:24 | 29.09745 | -80.80514 | 31538 ft | 511 kts | 124° |
| 2026-05-06 11:25 | 29.07685 | -80.77238 | 31735 ft | 514 kts | 124° |
| 2026-05-06 11:25 | 29.05605 | -80.73911 | 31971 ft | 515 kts | 124° |
| 2026-05-06 11:25 | 29.03550 | -80.70608 | 32185 ft | 517 kts | 124° |
| 2026-05-06 11:25 | 29.01479 | -80.67271 | 32401 ft | 518 kts | 123° |
| 2026-05-06 11:26 | 28.99373 | -80.63870 | 32610 ft | 519 kts | 123° |
| 2026-05-06 11:26 | 28.97302 | -80.60524 | 32805 ft | 521 kts | 123° |
| 2026-05-06 11:26 | 28.95223 | -80.57163 | 33030 ft | 522 kts | 123° |
| 2026-05-06 11:26 | 28.93114 | -80.53756 | 33206 ft | 524 kts | 123° |
| 2026-05-06 11:27 | 28.91018 | -80.50369 | 33400 ft | 525 kts | 123° |
| 2026-05-06 11:27 | 28.88937 | -80.47008 | 33574 ft | 526 kts | 123° |
| 2026-05-06 11:27 | 28.86821 | -80.43592 | 33746 ft | 527 kts | 123° |
| 2026-05-06 11:27 | 28.84716 | -80.40196 | 33903 ft | 528 kts | 123° |
| 2026-05-06 11:28 | 28.82605 | -80.36792 | 34051 ft | 529 kts | 123° |
| 2026-05-06 11:28 | 28.80484 | -80.33375 | 34317 ft | 527 kts | 124° |
| 2026-05-06 11:28 | 28.78371 | -80.29975 | 34542 ft | 527 kts | 124° |
| 2026-05-06 11:28 | 28.76257 | -80.26575 | 34692 ft | 527 kts | 124° |
| 2026-05-06 11:29 | 28.74138 | -80.23167 | 34891 ft | 527 kts | 124° |
| 2026-05-06 11:29 | 28.72026 | -80.19769 | 35108 ft | 526 kts | 123° |
| 2026-05-06 11:29 | 28.69927 | -80.16392 | 35281 ft | 526 kts | 123° |
| 2026-05-06 11:29 | 28.67807 | -80.12987 | 35452 ft | 526 kts | 124° |
| 2026-05-06 11:30 | 28.65702 | -80.09618 | 35605 ft | 526 kts | 124° |
| 2026-05-06 11:30 | 28.63582 | -80.06228 | 35740 ft | 527 kts | 124° |
| 2026-05-06 11:30 | 28.61487 | -80.02879 | 35889 ft | 527 kts | 123° |
| 2026-05-06 11:30 | 28.59342 | -79.99451 | 36063 ft | 526 kts | 123° |
| 2026-05-06 11:31 | 28.57240 | -79.96097 | 36235 ft | 526 kts | 123° |
| 2026-05-06 11:31 | 28.55114 | -79.92721 | 36353 ft | 527 kts | 123° |
| 2026-05-06 11:31 | 28.52990 | -79.89341 | 36519 ft | 526 kts | 123° |
| 2026-05-06 11:31 | 28.50864 | -79.85945 | 36644 ft | 527 kts | 123° |
| 2026-05-06 11:32 | 28.48764 | -79.82592 | 36787 ft | 527 kts | 123° |
| 2026-05-06 11:32 | 28.46632 | -79.79195 | 36912 ft | 528 kts | 123° |
| 2026-05-06 11:32 | 28.44492 | -79.75792 | 37037 ft | 528 kts | 123° |
| 2026-05-06 11:33 | 28.40212 | -79.68992 | 37051 ft | 532 kts | 123° |
| 2026-05-06 11:33 | 28.35932 | -79.62206 | 37052 ft | 530 kts | 123° |
| 2026-05-06 11:34 | 28.31223 | -79.55803 | 37052 ft | 531 kts | 136° |
| 2026-05-06 11:34 | 28.28383 | -79.53144 | 37053 ft | 531 kts | 147° |
| 2026-05-06 11:34 | 28.25213 | -79.51063 | 37056 ft | 529 kts | 156° |
| 2026-05-06 11:35 | 28.18510 | -79.47782 | 37066 ft | 529 kts | 159° |
| 2026-05-06 11:35 | 28.11801 | -79.44453 | 37069 ft | 529 kts | 158° |
| 2026-05-06 11:36 | 28.05051 | -79.41130 | 37073 ft | 529 kts | 159° |
| 2026-05-06 11:36 | 27.98339 | -79.37872 | 37075 ft | 529 kts | 159° |
| 2026-05-06 11:37 | 27.91616 | -79.34611 | 37083 ft | 528 kts | 159° |
| 2026-05-06 11:37 | 27.84844 | -79.31344 | 37084 ft | 528 kts | 159° |
| 2026-05-06 11:38 | 27.78113 | -79.28099 | 37076 ft | 528 kts | 159° |
| 2026-05-06 11:38 | 27.71394 | -79.24862 | 37076 ft | 530 kts | 159° |
| 2026-05-06 11:39 | 27.64646 | -79.21619 | 37076 ft | 531 kts | 159° |
| 2026-05-06 11:39 | 27.57869 | -79.18370 | 37079 ft | 530 kts | 159° |
| 2026-05-06 11:40 | 27.51077 | -79.15115 | 37078 ft | 530 kts | 159° |
| 2026-05-06 11:40 | 27.44342 | -79.11890 | 37075 ft | 530 kts | 159° |
| 2026-05-06 11:41 | 27.37587 | -79.08666 | 37076 ft | 531 kts | 159° |
| 2026-05-06 11:41 | 27.30783 | -79.05417 | 37075 ft | 532 kts | 159° |
| 2026-05-06 11:42 | 27.24021 | -79.02192 | 37075 ft | 532 kts | 159° |
| 2026-05-06 11:42 | 27.17244 | -78.98965 | 37076 ft | 531 kts | 158° |
| 2026-05-06 11:43 | 27.10454 | -78.95743 | 37074 ft | 530 kts | 158° |
| 2026-05-06 11:43 | 27.03680 | -78.92525 | 37074 ft | 530 kts | 158° |
| 2026-05-06 11:44 | 26.93546 | -78.87722 | 37074 ft | 531 kts | 158° |
| 2026-05-06 11:44 | 26.86690 | -78.84476 | 37074 ft | 531 kts | 158° |
| 2026-05-06 11:45 | 26.79954 | -78.81291 | 37074 ft | 531 kts | 158° |
| 2026-05-06 11:45 | 26.73153 | -78.78081 | 37074 ft | 531 kts | 158° |
| 2026-05-06 11:46 | 26.66368 | -78.74882 | 37073 ft | 531 kts | 158° |
| 2026-05-06 11:46 | 26.59617 | -78.71646 | 37072 ft | 531 kts | 155° |
| 2026-05-06 11:47 | 26.53240 | -78.67614 | 37074 ft | 530 kts | 144° |
| 2026-05-06 11:47 | 26.47279 | -78.62739 | 37073 ft | 530 kts | 142° |
| 2026-05-06 11:48 | 26.41353 | -78.57914 | 37073 ft | 530 kts | 142° |
| 2026-05-06 11:48 | 26.35416 | -78.53049 | 37074 ft | 531 kts | 142° |
| 2026-05-06 11:49 | 26.29511 | -78.48180 | 37074 ft | 531 kts | 142° |
| 2026-05-06 11:49 | 26.23590 | -78.43301 | 37073 ft | 531 kts | 142° |
| 2026-05-06 11:50 | 26.17679 | -78.38431 | 37074 ft | 531 kts | 142° |
| 2026-05-06 11:50 | 26.11770 | -78.33559 | 37074 ft | 531 kts | 142° |
| 2026-05-06 11:51 | 26.05851 | -78.28687 | 37076 ft | 531 kts | 142° |
| 2026-05-06 11:51 | 25.99911 | -78.23804 | 37077 ft | 531 kts | 142° |
| 2026-05-06 11:52 | 25.93985 | -78.18939 | 37078 ft | 531 kts | 142° |
| 2026-05-06 11:52 | 25.88068 | -78.14087 | 37079 ft | 531 kts | 142° |
| 2026-05-06 11:53 | 25.82149 | -78.09239 | 37080 ft | 530 kts | 142° |
| 2026-05-06 11:53 | 25.76250 | -78.04413 | 37081 ft | 531 kts | 142° |
| 2026-05-06 11:54 | 25.70318 | -77.99567 | 37082 ft | 531 kts | 142° |
| 2026-05-06 11:54 | 25.64405 | -77.94752 | 37084 ft | 531 kts | 142° |
| 2026-05-06 11:55 | 25.58482 | -77.89922 | 37085 ft | 531 kts | 142° |
| 2026-05-06 11:55 | 25.52563 | -77.85101 | 37086 ft | 531 kts | 142° |
| 2026-05-06 11:56 | 25.46614 | -77.80266 | 37088 ft | 531 kts | 142° |
| 2026-05-06 11:56 | 25.40684 | -77.75451 | 37089 ft | 531 kts | 142° |
| 2026-05-06 11:57 | 25.34753 | -77.70644 | 37090 ft | 530 kts | 142° |
| 2026-05-06 11:57 | 25.28828 | -77.65858 | 37090 ft | 529 kts | 142° |
| 2026-05-06 11:58 | 25.22920 | -77.61073 | 37091 ft | 529 kts | 142° |
| 2026-05-06 11:58 | 25.16999 | -77.56285 | 37091 ft | 529 kts | 142° |
| 2026-05-06 11:59 | 25.11083 | -77.51513 | 37091 ft | 528 kts | 142° |
| 2026-05-06 11:59 | 25.05215 | -77.46687 | 37091 ft | 527 kts | 139° |
| 2026-05-06 12:00 | 24.99977 | -77.41177 | 37092 ft | 523 kts | 128° |
| 2026-05-06 12:00 | 24.95122 | -77.35224 | 37091 ft | 523 kts | 128° |
| 2026-05-06 12:01 | 24.90277 | -77.29305 | 37091 ft | 524 kts | 128° |
| 2026-05-06 12:01 | 24.85419 | -77.23315 | 37091 ft | 524 kts | 128° |
| 2026-05-06 12:02 | 24.80609 | -77.17374 | 37091 ft | 524 kts | 128° |
| 2026-05-06 12:02 | 24.75759 | -77.11384 | 37091 ft | 524 kts | 128° |
| 2026-05-06 12:03 | 24.70926 | -77.05413 | 37091 ft | 525 kts | 128° |
| 2026-05-06 12:03 | 24.66088 | -76.99443 | 37090 ft | 524 kts | 128° |
| 2026-05-06 12:04 | 24.61252 | -76.93487 | 37090 ft | 524 kts | 128° |
| 2026-05-06 12:04 | 24.56403 | -76.87517 | 37091 ft | 524 kts | 128° |
| 2026-05-06 12:05 | 24.51550 | -76.81545 | 37090 ft | 525 kts | 128° |
| 2026-05-06 12:05 | 24.46708 | -76.75599 | 37090 ft | 525 kts | 128° |
| 2026-05-06 12:06 | 24.41881 | -76.69680 | 37090 ft | 525 kts | 128° |
| 2026-05-06 12:06 | 24.37001 | -76.63708 | 37090 ft | 525 kts | 128° |
| 2026-05-06 12:07 | 24.32159 | -76.57778 | 37090 ft | 525 kts | 127° |
| 2026-05-06 12:07 | 24.27298 | -76.51837 | 37090 ft | 526 kts | 128° |
| 2026-05-06 12:08 | 24.22425 | -76.45887 | 37089 ft | 526 kts | 128° |
| 2026-05-06 12:08 | 24.17564 | -76.39963 | 37089 ft | 525 kts | 127° |
| 2026-05-06 12:09 | 24.12677 | -76.34016 | 37089 ft | 525 kts | 128° |
| 2026-05-06 12:09 | 24.07816 | -76.28101 | 37090 ft | 526 kts | 128° |
| 2026-05-06 12:10 | 24.02916 | -76.22150 | 37087 ft | 526 kts | 128° |
| 2026-05-06 12:10 | 23.98030 | -76.16224 | 37086 ft | 526 kts | 128° |
| 2026-05-06 12:11 | 23.93143 | -76.10304 | 37086 ft | 526 kts | 128° |
| 2026-05-06 12:11 | 23.88251 | -76.04384 | 37087 ft | 526 kts | 128° |
| 2026-05-06 12:12 | 23.83368 | -75.98483 | 37087 ft | 526 kts | 128° |
| 2026-05-06 12:12 | 23.78473 | -75.92573 | 37085 ft | 526 kts | 128° |
| 2026-05-06 12:13 | 23.73587 | -75.86683 | 37084 ft | 526 kts | 128° |
| 2026-05-06 12:13 | 23.68691 | -75.80788 | 37086 ft | 526 kts | 128° |
| 2026-05-06 12:14 | 23.63803 | -75.74909 | 37085 ft | 525 kts | 128° |
| 2026-05-06 12:14 | 23.58913 | -75.69036 | 37085 ft | 525 kts | 128° |
| 2026-05-06 12:15 | 23.54006 | -75.63148 | 37085 ft | 525 kts | 128° |
| 2026-05-06 12:15 | 23.49094 | -75.57262 | 37096 ft | 523 kts | 127° |
| 2026-05-06 12:16 | 23.44285 | -75.51537 | 37101 ft | 511 kts | 127° |
| 2026-05-06 12:16 | 23.39497 | -75.45792 | 37103 ft | 514 kts | 127° |
| 2026-05-06 12:17 | 23.34704 | -75.40058 | 37102 ft | 517 kts | 127° |
| 2026-05-06 12:17 | 23.29858 | -75.34280 | 37102 ft | 516 kts | 127° |
| 2026-05-06 12:18 | 23.25046 | -75.28547 | 37102 ft | 515 kts | 127° |
| 2026-05-06 12:18 | 23.20239 | -75.22829 | 37102 ft | 515 kts | 127° |
| 2026-05-06 12:19 | 23.15414 | -75.17092 | 37102 ft | 516 kts | 127° |
| 2026-05-06 12:19 | 23.10599 | -75.11374 | 37101 ft | 517 kts | 127° |
| 2026-05-06 12:20 | 23.05679 | -75.05695 | 37101 ft | 518 kts | 130° |
| 2026-05-06 12:20 | 23.00591 | -75.00228 | 37100 ft | 518 kts | 130° |
| 2026-05-06 12:21 | 22.95490 | -74.94672 | 37100 ft | 519 kts | 130° |
| 2026-05-06 12:21 | 22.90436 | -74.89164 | 37099 ft | 519 kts | 130° |
| 2026-05-06 12:22 | 22.85353 | -74.83633 | 37099 ft | 518 kts | 130° |
| 2026-05-06 12:22 | 22.80296 | -74.78128 | 37098 ft | 518 kts | 130° |
| 2026-05-06 12:23 | 22.75188 | -74.72575 | 37097 ft | 519 kts | 130° |
| 2026-05-06 12:23 | 22.70129 | -74.67079 | 37097 ft | 520 kts | 130° |
| 2026-05-06 12:24 | 22.65013 | -74.61529 | 37096 ft | 520 kts | 130° |
| 2026-05-06 12:24 | 22.59943 | -74.56035 | 37095 ft | 519 kts | 129° |
| 2026-05-06 12:25 | 22.54855 | -74.50526 | 37094 ft | 518 kts | 129° |
| 2026-05-06 12:25 | 22.49766 | -74.45019 | 37094 ft | 519 kts | 129° |
| 2026-05-06 12:26 | 22.44684 | -74.39529 | 37093 ft | 520 kts | 129° |
| 2026-05-06 12:26 | 22.39580 | -74.34019 | 37091 ft | 520 kts | 130° |
| 2026-05-06 12:27 | 22.34486 | -74.28528 | 37091 ft | 521 kts | 130° |
| 2026-05-06 12:27 | 22.29359 | -74.23007 | 37090 ft | 521 kts | 130° |
| 2026-05-06 12:28 | 22.24239 | -74.17500 | 37089 ft | 521 kts | 130° |
| 2026-05-06 12:28 | 22.19127 | -74.12006 | 37088 ft | 521 kts | 130° |
| 2026-05-06 12:29 | 22.14012 | -74.06516 | 37087 ft | 521 kts | 130° |
| 2026-05-06 12:29 | 22.08915 | -74.01052 | 37086 ft | 521 kts | 130° |
| 2026-05-06 12:30 | 22.03798 | -73.95573 | 37085 ft | 521 kts | 130° |
| 2026-05-06 12:30 | 21.98652 | -73.90067 | 37084 ft | 521 kts | 130° |
| 2026-05-06 12:31 | 21.93522 | -73.84585 | 37083 ft | 521 kts | 130° |
| 2026-05-06 12:31 | 21.88397 | -73.79114 | 37083 ft | 520 kts | 130° |
| 2026-05-06 12:32 | 21.83296 | -73.73674 | 37082 ft | 519 kts | 130° |
| 2026-05-06 12:32 | 21.78195 | -73.68240 | 37082 ft | 520 kts | 130° |
| 2026-05-06 12:33 | 21.73070 | -73.62786 | 37076 ft | 520 kts | 130° |
| 2026-05-06 12:33 | 21.67932 | -73.57327 | 37075 ft | 520 kts | 130° |
| 2026-05-06 12:34 | 21.62823 | -73.51904 | 37074 ft | 519 kts | 130° |
| 2026-05-06 12:34 | 21.57710 | -73.46479 | 37074 ft | 518 kts | 130° |
| 2026-05-06 12:35 | 21.52582 | -73.41045 | 37074 ft | 517 kts | 130° |
| 2026-05-06 12:35 | 21.47476 | -73.35640 | 37073 ft | 517 kts | 130° |
| 2026-05-06 12:36 | 21.42390 | -73.30265 | 37073 ft | 516 kts | 131° |
| 2026-05-06 12:36 | 21.37283 | -73.24873 | 37072 ft | 515 kts | 131° |
| 2026-05-06 12:37 | 21.32209 | -73.19515 | 37072 ft | 515 kts | 131° |
| 2026-05-06 12:37 | 21.27115 | -73.14145 | 37072 ft | 515 kts | 131° |
| 2026-05-06 12:38 | 21.22024 | -73.08782 | 37072 ft | 515 kts | 131° |
| 2026-05-06 12:38 | 21.16912 | -73.03405 | 37071 ft | 515 kts | 131° |
| 2026-05-06 12:39 | 21.11818 | -72.98053 | 37070 ft | 514 kts | 131° |
| 2026-05-06 12:39 | 21.06746 | -72.92728 | 37070 ft | 514 kts | 131° |
| 2026-05-06 12:40 | 21.01652 | -72.87385 | 37070 ft | 514 kts | 131° |
| 2026-05-06 12:40 | 20.96562 | -72.82056 | 37069 ft | 513 kts | 131° |
| 2026-05-06 12:41 | 20.91496 | -72.76755 | 37068 ft | 511 kts | 131° |
| 2026-05-06 12:41 | 20.86404 | -72.71427 | 37067 ft | 512 kts | 131° |
| 2026-05-06 12:42 | 20.81331 | -72.66129 | 37066 ft | 512 kts | 131° |
| 2026-05-06 12:42 | 20.76262 | -72.60841 | 37063 ft | 511 kts | 131° |
| 2026-05-06 12:43 | 20.71182 | -72.55544 | 37062 ft | 511 kts | 131° |
| 2026-05-06 12:43 | 20.66112 | -72.50266 | 37061 ft | 511 kts | 131° |
| 2026-05-06 12:44 | 20.61056 | -72.45006 | 37060 ft | 511 kts | 131° |
| 2026-05-06 12:44 | 20.55996 | -72.39746 | 36602 ft | 508 kts | 131° |
| 2026-05-06 12:45 | 20.53485 | -72.37143 | 35905 ft | 506 kts | 131° |
| 2026-05-06 12:45 | 20.50952 | -72.34524 | 35116 ft | 506 kts | 133° |
| 2026-05-06 12:45 | 20.45922 | -72.29336 | 33451 ft | 507 kts | 133° |
| 2026-05-06 12:46 | 20.43624 | -72.26526 | 32598 ft | 503 kts | 122° |
| 2026-05-06 12:46 | 20.41802 | -72.23359 | 31725 ft | 500 kts | 117° |
| 2026-05-06 12:46 | 20.40147 | -72.20133 | 30804 ft | 500 kts | 114° |
| 2026-05-06 12:46 | 20.38685 | -72.16738 | 29847 ft | 500 kts | 111° |
| 2026-05-06 12:47 | 20.37351 | -72.13348 | 28871 ft | 502 kts | 111° |
| 2026-05-06 12:47 | 20.35998 | -72.09914 | 27869 ft | 509 kts | 111° |
| 2026-05-06 12:47 | 20.34615 | -72.06449 | 27160 ft | 502 kts | 111° |
| 2026-05-06 12:47 | 20.33264 | -72.03057 | 26424 ft | 495 kts | 111° |
| 2026-05-06 12:48 | 20.31949 | -71.99720 | 25695 ft | 488 kts | 111° |
| 2026-05-06 12:48 | 20.30667 | -71.96443 | 24963 ft | 482 kts | 111° |
| 2026-05-06 12:48 | 20.29385 | -71.93156 | 24229 ft | 478 kts | 111° |
| 2026-05-06 12:48 | 20.28117 | -71.89912 | 23509 ft | 476 kts | 111° |
| 2026-05-06 12:49 | 20.26840 | -71.86645 | 22769 ft | 476 kts | 111° |
| 2026-05-06 12:49 | 20.25548 | -71.83445 | 22036 ft | 475 kts | 113° |
| 2026-05-06 12:49 | 20.24189 | -71.80239 | 21297 ft | 470 kts | 114° |
| 2026-05-06 12:49 | 20.22856 | -71.77111 | 20801 ft | 461 kts | 114° |
| 2026-05-06 12:50 | 20.21564 | -71.74048 | 20504 ft | 458 kts | 114° |
| 2026-05-06 12:50 | 20.20257 | -71.70935 | 20308 ft | 461 kts | 114° |
| 2026-05-06 12:50 | 20.18940 | -71.67859 | 19835 ft | 463 kts | 116° |
| 2026-05-06 12:50 | 20.17440 | -71.64831 | 19243 ft | 457 kts | 119° |
| 2026-05-06 12:51 | 20.15899 | -71.61918 | 18692 ft | 450 kts | 120° |
| 2026-05-06 12:51 | 20.14409 | -71.59058 | 18309 ft | 443 kts | 119° |
| 2026-05-06 12:51 | 20.12935 | -71.56185 | 18153 ft | 445 kts | 119° |
| 2026-05-06 12:51 | 20.11443 | -71.53275 | 17579 ft | 450 kts | 119° |
| 2026-05-06 12:52 | 20.09946 | -71.50354 | 17007 ft | 440 kts | 119° |
| 2026-05-06 12:52 | 20.08514 | -71.47555 | 16468 ft | 431 kts | 119° |
| 2026-05-06 12:52 | 20.07100 | -71.44789 | 15937 ft | 424 kts | 119° |
| 2026-05-06 12:52 | 20.05707 | -71.42063 | 15402 ft | 410 kts | 119° |
| 2026-05-06 12:53 | 20.04404 | -71.39512 | 14924 ft | 385 kts | 119° |
| 2026-05-06 12:53 | 20.03166 | -71.37090 | 14467 ft | 368 kts | 119° |
| 2026-05-06 12:53 | 20.01943 | -71.34699 | 13998 ft | 361 kts | 119° |
| 2026-05-06 12:53 | 20.00757 | -71.32380 | 13546 ft | 355 kts | 119° |
| 2026-05-06 12:54 | 19.99602 | -71.30123 | 13109 ft | 349 kts | 119° |
| 2026-05-06 12:54 | 19.98463 | -71.27897 | 12671 ft | 337 kts | 119° |
| 2026-05-06 12:54 | 19.97367 | -71.25754 | 12257 ft | 321 kts | 119° |
| 2026-05-06 12:54 | 19.96323 | -71.23715 | 11860 ft | 306 kts | 120° |
| 2026-05-06 12:55 | 19.95323 | -71.21763 | 11485 ft | 299 kts | 119° |
| 2026-05-06 12:55 | 19.94334 | -71.19834 | 11101 ft | 296 kts | 119° |
| 2026-05-06 12:55 | 19.93358 | -71.17928 | 10725 ft | 293 kts | 119° |
| 2026-05-06 12:55 | 19.92396 | -71.16051 | 10354 ft | 290 kts | 119° |
| 2026-05-06 12:56 | 19.91440 | -71.14186 | 10044 ft | 284 kts | 119° |
| 2026-05-06 12:56 | 19.90510 | -71.12373 | 9884 ft | 278 kts | 119° |
| 2026-05-06 12:56 | 19.89588 | -71.10576 | 9513 ft | 278 kts | 119° |
| 2026-05-06 12:56 | 19.88668 | -71.08781 | 9235 ft | 272 kts | 119° |
| 2026-05-06 12:57 | 19.87775 | -71.07044 | 9136 ft | 267 kts | 119° |
| 2026-05-06 12:57 | 19.86881 | -71.05303 | 8923 ft | 268 kts | 119° |
| 2026-05-06 12:57 | 19.85987 | -71.03563 | 8495 ft | 268 kts | 119° |
| 2026-05-06 12:57 | 19.85101 | -71.01837 | 8151 ft | 266 kts | 119° |
| 2026-05-06 12:58 | 19.84230 | -71.00143 | 7802 ft | 263 kts | 119° |
| 2026-05-06 12:58 | 19.83362 | -70.98455 | 7621 ft | 254 kts | 119° |
| 2026-05-06 12:58 | 19.82529 | -70.96835 | 7311 ft | 251 kts | 119° |
| 2026-05-06 12:58 | 19.81711 | -70.95246 | 7164 ft | 241 kts | 118° |
| 2026-05-06 12:59 | 19.80906 | -70.93682 | 6877 ft | 238 kts | 119° |
| 2026-05-06 12:59 | 19.80122 | -70.92158 | 6594 ft | 236 kts | 118° |
| 2026-05-06 12:59 | 19.79337 | -70.90633 | 6313 ft | 231 kts | 118° |
| 2026-05-06 12:59 | 19.78573 | -70.89150 | 5859 ft | 231 kts | 119° |
| 2026-05-06 13:00 | 19.77816 | -70.87681 | 5619 ft | 222 kts | 119° |
| 2026-05-06 13:00 | 19.77078 | -70.86249 | 5259 ft | 220 kts | 119° |
| 2026-05-06 13:00 | 19.76370 | -70.84875 | 5066 ft | 208 kts | 119° |
| 2026-05-06 13:00 | 19.75682 | -70.83540 | 4744 ft | 202 kts | 119° |
| 2026-05-06 13:01 | 19.75215 | -70.82205 | 4567 ft | 189 kts | 99° |
| 2026-05-06 13:01 | 19.75095 | -70.80843 | 4170 ft | 187 kts | 98° |
| 2026-05-06 13:01 | 19.74954 | -70.79482 | 3757 ft | 185 kts | 98° |
| 2026-05-06 13:01 | 19.74810 | -70.78127 | 3308 ft | 184 kts | 98° |
| 2026-05-06 13:02 | 19.74670 | -70.76800 | 2840 ft | 183 kts | 99° |
| 2026-05-06 13:02 | 19.74525 | -70.75441 | 2397 ft | 185 kts | 97° |
| 2026-05-06 13:02 | 19.74385 | -70.74094 | 2230 ft | 185 kts | 98° |
| 2026-05-06 13:02 | 19.74236 | -70.72746 | 2156 ft | 184 kts | 98° |
| 2026-05-06 13:03 | 19.74095 | -70.71388 | 2078 ft | 185 kts | 97° |
| 2026-05-06 13:03 | 19.73954 | -70.70063 | 2001 ft | 171 kts | 98° |
| 2026-05-06 13:03 | 19.73828 | -70.68912 | 1852 ft | 152 kts | 99° |
| 2026-05-06 13:03 | 19.73705 | -70.67767 | 1707 ft | 156 kts | 97° |
| 2026-05-06 13:04 | 19.73590 | -70.66635 | 1564 ft | 155 kts | 98° |
| 2026-05-06 13:04 | 19.73462 | -70.65499 | 1429 ft | 154 kts | 97° |
| 2026-05-06 13:04 | 19.73615 | -70.64372 | 1229 ft | 158 kts | 71° |
| 2026-05-06 13:04 | 19.73999 | -70.63283 | 989 ft | 157 kts | 72° |
| 2026-05-06 13:05 | 19.74325 | -70.62185 | 707 ft | 156 kts | 77° |
| 2026-05-06 13:05 | 19.74607 | -70.61076 | 479 ft | 156 kts | 74° |
| 2026-05-06 13:05 | 19.74941 | -70.59986 | 310 ft | 156 kts | 75° |
| 2026-05-06 13:05 | 19.75250 | -70.58892 | 168 ft | 154 kts | 75° |
| 2026-05-06 13:06 | 19.75553 | -70.57826 | 46 ft | 142 kts | 73° |
| 2026-05-06 13:06 | 19.75768 | -70.57079 | 41 ft | 65 kts | 75° |
| 2026-05-06 13:06 | 19.75851 | -70.56795 | 42 ft | 31 kts | 73° |
| 2026-05-06 13:06 | 19.75911 | -70.56593 | 42 ft | 27 kts | 73° |
| 2026-05-06 13:07 | 19.75930 | -70.56456 | 43 ft | 12 kts | 125° |
| 2026-05-06 13:07 | 19.75851 | -70.56419 | 45 ft | 12 kts | 163° |
| 2026-05-06 13:07 | 19.75777 | -70.56396 | 48 ft | 8 kts | 163° |
| 2026-05-06 13:07 | 19.75728 | -70.56393 | 49 ft | 7 kts | 207° |
| 2026-05-06 13:08 | 19.75692 | -70.56461 | 49 ft | 11 kts | 253° |
| 2026-05-06 13:08 | 19.75668 | -70.56541 | 48 ft | 11 kts | 253° |
| 2026-05-06 13:08 | 19.75634 | -70.56606 | 48 ft | 9 kts | 212° |
| 2026-05-06 13:08 | 19.75583 | -70.56620 | 50 ft | 6 kts | 183° |
| 2026-05-06 13:09 | 19.75536 | -70.56616 | 52 ft | 8 kts | 168° |
| 2026-05-06 13:09 | 19.75482 | -70.56595 | 54 ft | 9 kts | 149° |
| 2026-05-06 13:09 | 19.75446 | -70.56539 | 56 ft | 8 kts | 89° |
| 2026-05-06 13:09 | 19.75471 | -70.56510 | 56 ft | 2 kts | 52° |
| 2026-05-06 13:10 | 19.75473 | -70.56494 | 56 ft | 1 kts | 60° |
| 2026-05-06 13:10 | 19.75488 | -70.56484 | 56 ft | 0 kts | 27° |